sensor_id;sensor_type;location;lat;lon;timestamp;pressure;altitude;pressure_sealevel;temperature;humidity
53246;BME280;39569;51.090;-1.786;2022-12-29T00:02:10;98759.25;;;31.94;28.11
53246;BME280;39569;51.090;-1.786;2022-12-29T00:04:37;98758.63;;;31.84;28.77
53246;BME280;39569;51.090;-1.786;2022-12-29T00:07:04;98750.66;;;31.79;28.82
53246;BME280;39569;51.090;-1.786;2022-12-29T00:09:33;98760.81;;;31.75;28.80
53246;BME280;39569;51.090;-1.786;2022-12-29T00:12:01;98757.41;;;31.82;28.96
53246;BME280;39569;51.090;-1.786;2022-12-29T00:14:28;98768.47;;;31.82;28.77
53246;BME280;39569;51.090;-1.786;2022-12-29T00:17:12;98752.66;;;31.82;28.53
53246;BME280;39569;51.090;-1.786;2022-12-29T00:19:39;98756.56;;;31.62;28.96
53246;BME280;39569;51.090;-1.786;2022-12-29T00:22:24;98755.81;;;31.62;29.01
53246;BME280;39569;51.090;-1.786;2022-12-29T00:25:11;98750.97;;;31.59;28.96
53246;BME280;39569;51.090;-1.786;2022-12-29T00:28:55;62679.75;;;-139.47;100.00
53246;BME280;39569;51.090;-1.786;2022-12-29T00:32:38;62679.75;;;-139.47;100.00
53246;BME280;39569;51.090;-1.786;2022-12-29T00:36:23;62679.75;;;-139.47;100.00
53246;BME280;39569;51.090;-1.786;2022-12-29T00:39:50;62679.75;;;-139.47;100.00
53246;BME280;39569;51.090;-1.786;2022-12-29T00:43:34;62679.75;;;-139.47;100.00
53246;BME280;39569;51.090;-1.786;2022-12-29T00:46:19;98751.06;;;31.97;28.38
53246;BME280;39569;51.090;-1.786;2022-12-29T00:48:45;98738.91;;;32.02;28.29
53246;BME280;39569;51.090;-1.786;2022-12-29T00:51:29;98738.91;;;32.02;28.85
53246;BME280;39569;51.090;-1.786;2022-12-29T00:53:56;98733.16;;;32.10;28.73
53246;BME280;39569;51.090;-1.786;2022-12-29T00:56:23;98745.44;;;32.13;28.69
53246;BME280;39569;51.090;-1.786;2022-12-29T00:58:51;98737.34;;;32.23;28.49
53246;BME280;39569;51.090;-1.786;2022-12-29T01:01:18;98742.97;;;32.27;28.47
53246;BME280;39569;51.090;-1.786;2022-12-29T01:03:45;98728.47;;;32.33;28.33
53246;BME280;39569;51.090;-1.786;2022-12-29T01:06:11;98736.03;;;32.36;28.21
53246;BME280;39569;51.090;-1.786;2022-12-29T01:08:38;98724.63;;;32.38;27.83
53246;BME280;39569;51.090;-1.786;2022-12-29T01:11:07;98719.09;;;32.38;27.98
53246;BME280;39569;51.090;-1.786;2022-12-29T01:13:34;98713.47;;;32.34;28.02
53246;BME280;39569;51.090;-1.786;2022-12-29T01:16:02;98716.53;;;32.29;28.61
53246;BME280;39569;51.090;-1.786;2022-12-29T01:18:29;98712.19;;;32.28;28.05
53246;BME280;39569;51.090;-1.786;2022-12-29T01:20:59;98706.16;;;32.23;28.37
53246;BME280;39569;51.090;-1.786;2022-12-29T01:23:27;98702.97;;;32.21;27.85
53246;BME280;39569;51.090;-1.786;2022-12-29T01:25:54;98716.41;;;32.22;27.98
53246;BME280;39569;51.090;-1.786;2022-12-29T01:28:21;98700.34;;;32.28;28.06
53246;BME280;39569;51.090;-1.786;2022-12-29T01:30:48;98712.91;;;32.25;28.10
53246;BME280;39569;51.090;-1.786;2022-12-29T01:33:16;98699.03;;;32.22;27.96
53246;BME280;39569;51.090;-1.786;2022-12-29T01:35:43;98703.34;;;32.19;28.10
53246;BME280;39569;51.090;-1.786;2022-12-29T01:38:10;98711.75;;;32.26;27.99
53246;BME280;39569;51.090;-1.786;2022-12-29T01:40:43;98700.56;;;32.19;28.02
53246;BME280;39569;51.090;-1.786;2022-12-29T01:43:11;98698.84;;;32.11;28.37
53246;BME280;39569;51.090;-1.786;2022-12-29T01:45:42;98708.13;;;32.03;28.57
53246;BME280;39569;51.090;-1.786;2022-12-29T01:48:11;98696.66;;;32.01;28.70
53246;BME280;39569;51.090;-1.786;2022-12-29T01:50:43;98697.81;;;32.00;28.17
53246;BME280;39569;51.090;-1.786;2022-12-29T01:53:15;98688.22;;;31.94;28.33
53246;BME280;39569;51.090;-1.786;2022-12-29T01:55:44;98687.25;;;31.86;28.72
53246;BME280;39569;51.090;-1.786;2022-12-29T01:58:14;98682.84;;;31.82;28.16
53246;BME280;39569;51.090;-1.786;2022-12-29T02:00:44;98685.47;;;31.75;28.85
53246;BME280;39569;51.090;-1.786;2022-12-29T02:03:11;98675.94;;;31.72;28.34
53246;BME280;39569;51.090;-1.786;2022-12-29T02:05:47;98679.25;;;31.62;29.01
53246;BME280;39569;51.090;-1.786;2022-12-29T02:08:15;98671.50;;;31.49;29.01
53246;BME280;39569;51.090;-1.786;2022-12-29T02:10:42;98675.34;;;31.44;29.34
53246;BME280;39569;51.090;-1.786;2022-12-29T02:13:10;98661.09;;;31.42;28.72
53246;BME280;39569;51.090;-1.786;2022-12-29T02:15:47;98655.56;;;31.42;29.24
53246;BME280;39569;51.090;-1.786;2022-12-29T02:18:28;98655.88;;;31.37;28.64
53246;BME280;39569;51.090;-1.786;2022-12-29T02:21:38;98648.13;;;31.27;29.17
53246;BME280;39569;51.090;-1.786;2022-12-29T02:27:40;98657.75;;;31.18;28.90
53246;BME280;39569;51.090;-1.786;2022-12-29T02:30:38;98647.44;;;31.15;28.88
53246;BME280;39569;51.090;-1.786;2022-12-29T02:33:15;98638.94;;;31.04;29.56
53246;BME280;39569;51.090;-1.786;2022-12-29T02:35:52;98657.53;;;31.07;29.25
53246;BME280;39569;51.090;-1.786;2022-12-29T02:38:28;98646.41;;;31.04;28.97
53246;BME280;39569;51.090;-1.786;2022-12-29T02:41:01;98645.09;;;30.98;29.08
53246;BME280;39569;51.090;-1.786;2022-12-29T02:43:37;98640.75;;;30.97;28.99
53246;BME280;39569;51.090;-1.786;2022-12-29T02:46:12;98619.41;;;30.93;29.55
53246;BME280;39569;51.090;-1.786;2022-12-29T02:48:46;98620.91;;;30.91;28.97
53246;BME280;39569;51.090;-1.786;2022-12-29T02:51:20;98627.03;;;30.84;29.25
53246;BME280;39569;51.090;-1.786;2022-12-29T02:53:50;98638.19;;;30.88;29.10
53246;BME280;39569;51.090;-1.786;2022-12-29T02:56:38;98656.75;;;30.91;28.87
53246;BME280;39569;51.090;-1.786;2022-12-29T02:59:06;98652.84;;;30.92;29.47
53246;BME280;39569;51.090;-1.786;2022-12-29T03:01:53;98654.91;;;30.95;29.47
53246;BME280;39569;51.090;-1.786;2022-12-29T03:04:48;98667.63;;;30.84;29.29
53246;BME280;39569;51.090;-1.786;2022-12-29T03:07:23;98668.31;;;30.97;28.95
53246;BME280;39569;51.090;-1.786;2022-12-29T03:09:58;98683.09;;;30.88;28.86
53246;BME280;39569;51.090;-1.786;2022-12-29T03:12:30;98687.72;;;30.84;29.00
53246;BME280;39569;51.090;-1.786;2022-12-29T03:15:21;98697.97;;;30.84;29.08
53246;BME280;39569;51.090;-1.786;2022-12-29T03:18:14;98708.00;;;30.76;29.46
53246;BME280;39569;51.090;-1.786;2022-12-29T03:20:43;98707.19;;;30.76;28.92
53246;BME280;39569;51.090;-1.786;2022-12-29T03:23:13;98705.94;;;30.73;29.07
53246;BME280;39569;51.090;-1.786;2022-12-29T03:25:44;98710.22;;;30.71;28.97
53246;BME280;39569;51.090;-1.786;2022-12-29T03:28:17;98722.84;;;30.72;28.99
53246;BME280;39569;51.090;-1.786;2022-12-29T03:30:46;98730.66;;;30.70;29.20
53246;BME280;39569;51.090;-1.786;2022-12-29T03:33:17;98719.47;;;30.78;28.98
53246;BME280;39569;51.090;-1.786;2022-12-29T03:35:47;98739.09;;;30.77;29.18
53246;BME280;39569;51.090;-1.786;2022-12-29T03:38:18;98727.91;;;30.70;28.86
53246;BME280;39569;51.090;-1.786;2022-12-29T03:40:48;98736.97;;;30.70;29.16
53246;BME280;39569;51.090;-1.786;2022-12-29T03:43:17;98740.38;;;30.64;29.00
53246;BME280;39569;51.090;-1.786;2022-12-29T03:45:44;98735.72;;;30.68;29.09
53246;BME280;39569;51.090;-1.786;2022-12-29T03:48:11;98729.22;;;30.60;29.46
53246;BME280;39569;51.090;-1.786;2022-12-29T03:50:39;98742.47;;;30.55;28.69
53246;BME280;39569;51.090;-1.786;2022-12-29T03:53:06;98739.84;;;30.58;29.23
53246;BME280;39569;51.090;-1.786;2022-12-29T03:55:32;98752.53;;;30.63;28.84
53246;BME280;39569;51.090;-1.786;2022-12-29T03:57:59;98748.97;;;30.62;28.76
53246;BME280;39569;51.090;-1.786;2022-12-29T04:00:26;98756.38;;;30.58;29.31
53246;BME280;39569;51.090;-1.786;2022-12-29T04:02:53;98759.13;;;30.58;28.92
53246;BME280;39569;51.090;-1.786;2022-12-29T04:05:20;98755.84;;;30.53;29.09
53246;BME280;39569;51.090;-1.786;2022-12-29T04:07:48;98774.50;;;30.59;29.05
53246;BME280;39569;51.090;-1.786;2022-12-29T04:10:15;98774.56;;;30.47;29.14
53246;BME280;39569;51.090;-1.786;2022-12-29T04:12:42;98781.59;;;30.45;29.10
53246;BME280;39569;51.090;-1.786;2022-12-29T04:15:11;98787.66;;;30.50;28.89
53246;BME280;39569;51.090;-1.786;2022-12-29T04:17:37;98796.38;;;30.52;29.23
53246;BME280;39569;51.090;-1.786;2022-12-29T04:20:05;98806.31;;;30.57;29.20
53246;BME280;39569;51.090;-1.786;2022-12-29T04:22:58;98810.38;;;30.47;29.41
53246;BME280;39569;51.090;-1.786;2022-12-29T04:25:24;98819.47;;;30.48;29.09
53246;BME280;39569;51.090;-1.786;2022-12-29T04:27:51;98832.00;;;30.45;28.97
53246;BME280;39569;51.090;-1.786;2022-12-29T04:30:18;98842.13;;;30.41;29.14
53246;BME280;39569;51.090;-1.786;2022-12-29T04:32:45;98834.53;;;30.38;29.24
53246;BME280;39569;51.090;-1.786;2022-12-29T04:35:11;98841.13;;;30.34;29.56
53246;BME280;39569;51.090;-1.786;2022-12-29T04:37:38;98847.09;;;30.36;29.07
53246;BME280;39569;51.090;-1.786;2022-12-29T04:40:08;98861.31;;;30.38;29.09
53246;BME280;39569;51.090;-1.786;2022-12-29T04:42:35;98863.06;;;30.30;29.35
53246;BME280;39569;51.090;-1.786;2022-12-29T04:45:02;98866.28;;;30.32;28.86
53246;BME280;39569;51.090;-1.786;2022-12-29T04:47:28;98879.13;;;30.28;29.11
53246;BME280;39569;51.090;-1.786;2022-12-29T04:49:55;98878.88;;;30.33;28.98
53246;BME280;39569;51.090;-1.786;2022-12-29T04:52:22;98901.63;;;30.30;29.00
53246;BME280;39569;51.090;-1.786;2022-12-29T04:54:49;98905.75;;;30.24;29.04
53246;BME280;39569;51.090;-1.786;2022-12-29T04:57:17;98907.69;;;30.24;29.17
53246;BME280;39569;51.090;-1.786;2022-12-29T04:59:43;98922.19;;;30.21;29.24
53246;BME280;39569;51.090;-1.786;2022-12-29T05:02:10;98938.34;;;30.22;28.92
53246;BME280;39569;51.090;-1.786;2022-12-29T05:04:37;98935.13;;;30.20;29.22
53246;BME280;39569;51.090;-1.786;2022-12-29T05:07:03;98939.72;;;30.16;29.44
53246;BME280;39569;51.090;-1.786;2022-12-29T05:09:30;98956.25;;;30.16;29.07
53246;BME280;39569;51.090;-1.786;2022-12-29T05:11:57;98952.84;;;30.19;28.96
53246;BME280;39569;51.090;-1.786;2022-12-29T05:14:25;98964.53;;;30.16;29.34
53246;BME280;39569;51.090;-1.786;2022-12-29T05:16:52;98975.53;;;30.16;29.22
53246;BME280;39569;51.090;-1.786;2022-12-29T05:19:19;98983.34;;;30.14;28.78
53246;BME280;39569;51.090;-1.786;2022-12-29T05:21:45;98985.09;;;30.19;29.25
53246;BME280;39569;51.090;-1.786;2022-12-29T05:24:12;98999.75;;;30.11;29.15
53246;BME280;39569;51.090;-1.786;2022-12-29T05:26:39;99008.50;;;30.13;29.12
53246;BME280;39569;51.090;-1.786;2022-12-29T05:29:06;99004.16;;;30.12;29.25
53246;BME280;39569;51.090;-1.786;2022-12-29T05:31:34;99028.38;;;30.06;28.86
53246;BME280;39569;51.090;-1.786;2022-12-29T05:34:01;99016.53;;;30.06;29.24
53246;BME280;39569;51.090;-1.786;2022-12-29T05:36:28;99027.09;;;30.03;29.22
53246;BME280;39569;51.090;-1.786;2022-12-29T05:38:54;99028.47;;;29.97;29.49
53246;BME280;39569;51.090;-1.786;2022-12-29T05:41:21;99034.88;;;30.01;29.11
53246;BME280;39569;51.090;-1.786;2022-12-29T05:43:48;99049.47;;;30.02;29.15
53246;BME280;39569;51.090;-1.786;2022-12-29T05:46:15;99057.97;;;29.97;29.21
53246;BME280;39569;51.090;-1.786;2022-12-29T05:48:44;99065.75;;;29.95;29.11
53246;BME280;39569;51.090;-1.786;2022-12-29T05:51:10;99076.31;;;29.93;29.22
53246;BME280;39569;51.090;-1.786;2022-12-29T05:53:37;99078.25;;;29.92;29.15
53246;BME280;39569;51.090;-1.786;2022-12-29T05:56:04;99091.22;;;29.92;29.21
53246;BME280;39569;51.090;-1.786;2022-12-29T05:58:31;99105.91;;;29.96;29.13
53246;BME280;39569;51.090;-1.786;2022-12-29T06:00:58;99109.81;;;29.95;28.97
53246;BME280;39569;51.090;-1.786;2022-12-29T06:03:25;99112.66;;;29.86;29.13
53246;BME280;39569;51.090;-1.786;2022-12-29T06:05:53;99125.94;;;29.72;29.36
53246;BME280;39569;51.090;-1.786;2022-12-29T06:08:19;99123.38;;;29.67;29.40
53246;BME280;39569;51.090;-1.786;2022-12-29T06:10:46;99120.56;;;29.76;29.40
53246;BME280;39569;51.090;-1.786;2022-12-29T06:13:13;99134.91;;;29.81;29.09
53246;BME280;39569;51.090;-1.786;2022-12-29T06:15:39;99139.88;;;29.88;29.19
53246;BME280;39569;51.090;-1.786;2022-12-29T06:18:06;99144.59;;;29.99;28.85
53246;BME280;39569;51.090;-1.786;2022-12-29T06:20:33;99146.22;;;30.13;29.09
53246;BME280;39569;51.090;-1.786;2022-12-29T06:23:01;99157.06;;;30.18;28.87
53246;BME280;39569;51.090;-1.786;2022-12-29T06:25:28;99156.25;;;30.17;28.82
53246;BME280;39569;51.090;-1.786;2022-12-29T06:27:57;99161.72;;;30.05;29.27
53246;BME280;39569;51.090;-1.786;2022-12-29T06:30:24;99166.09;;;30.06;29.09
53246;BME280;39569;51.090;-1.786;2022-12-29T06:32:50;99171.16;;;30.16;28.86
53246;BME280;39569;51.090;-1.786;2022-12-29T06:35:17;99173.97;;;30.28;28.90
53246;BME280;39569;51.090;-1.786;2022-12-29T06:37:44;99181.47;;;30.40;28.92
53246;BME280;39569;51.090;-1.786;2022-12-29T06:40:12;99181.91;;;30.54;28.71
53246;BME280;39569;51.090;-1.786;2022-12-29T06:42:39;99178.38;;;30.65;28.34
53246;BME280;39569;51.090;-1.786;2022-12-29T06:45:07;99182.06;;;30.81;28.64
53246;BME280;39569;51.090;-1.786;2022-12-29T06:47:34;99180.44;;;30.80;28.20
53246;BME280;39569;51.090;-1.786;2022-12-29T06:50:01;99183.97;;;30.81;28.71
53246;BME280;39569;51.090;-1.786;2022-12-29T06:52:28;99195.06;;;30.93;28.20
53246;BME280;39569;51.090;-1.786;2022-12-29T06:54:55;99207.22;;;31.04;28.04
53246;BME280;39569;51.090;-1.786;2022-12-29T06:57:23;99197.78;;;31.17;27.89
53246;BME280;39569;51.090;-1.786;2022-12-29T06:59:51;99201.13;;;31.23;28.48
53246;BME280;39569;51.090;-1.786;2022-12-29T07:02:20;99202.91;;;31.31;28.32
53246;BME280;39569;51.090;-1.786;2022-12-29T07:04:47;99204.31;;;31.37;27.64
53246;BME280;39569;51.090;-1.786;2022-12-29T07:07:14;99199.38;;;31.42;27.80
53246;BME280;39569;51.090;-1.786;2022-12-29T07:09:41;99203.13;;;31.50;27.69
53246;BME280;39569;51.090;-1.786;2022-12-29T07:12:08;99210.38;;;31.54;27.63
53246;BME280;39569;51.090;-1.786;2022-12-29T07:14:36;99208.41;;;31.55;27.57
53246;BME280;39569;51.090;-1.786;2022-12-29T07:17:03;99203.56;;;31.64;27.94
53246;BME280;39569;51.090;-1.786;2022-12-29T07:19:30;99203.31;;;31.69;27.33
53246;BME280;39569;51.090;-1.786;2022-12-29T07:21:57;99206.53;;;31.71;27.32
53246;BME280;39569;51.090;-1.786;2022-12-29T07:24:24;99206.19;;;31.72;28.03
53246;BME280;39569;51.090;-1.786;2022-12-29T07:26:50;99210.31;;;31.78;27.80
53246;BME280;39569;51.090;-1.786;2022-12-29T07:29:17;99220.75;;;31.85;27.04
53246;BME280;39569;51.090;-1.786;2022-12-29T07:31:46;99217.97;;;31.85;27.54
53246;BME280;39569;51.090;-1.786;2022-12-29T07:34:12;99221.66;;;31.89;27.56
53246;BME280;39569;51.090;-1.786;2022-12-29T07:36:39;99229.38;;;31.83;27.47
53246;BME280;39569;51.090;-1.786;2022-12-29T07:39:06;99242.75;;;31.81;27.76
53246;BME280;39569;51.090;-1.786;2022-12-29T07:41:33;99256.00;;;31.76;27.71
53246;BME280;39569;51.090;-1.786;2022-12-29T07:44:00;99252.22;;;31.68;27.32
53246;BME280;39569;51.090;-1.786;2022-12-29T07:46:27;99252.47;;;31.63;27.76
53246;BME280;39569;51.090;-1.786;2022-12-29T07:48:55;99256.47;;;31.66;27.76
53246;BME280;39569;51.090;-1.786;2022-12-29T07:51:21;99253.84;;;31.69;27.69
53246;BME280;39569;51.090;-1.786;2022-12-29T07:53:48;99271.19;;;31.70;27.13
53246;BME280;39569;51.090;-1.786;2022-12-29T07:56:15;99277.31;;;31.63;27.85
53246;BME280;39569;51.090;-1.786;2022-12-29T07:58:42;99278.81;;;31.61;27.57
53246;BME280;39569;51.090;-1.786;2022-12-29T08:01:08;99276.06;;;31.61;27.48
53246;BME280;39569;51.090;-1.786;2022-12-29T08:03:35;99281.56;;;31.61;27.85
53246;BME280;39569;51.090;-1.786;2022-12-29T08:06:05;99288.47;;;31.67;27.79
53246;BME280;39569;51.090;-1.786;2022-12-29T08:08:31;99293.44;;;31.61;27.47
53246;BME280;39569;51.090;-1.786;2022-12-29T08:10:58;99298.97;;;31.61;27.37
53246;BME280;39569;51.090;-1.786;2022-12-29T08:13:25;99304.47;;;31.61;27.31
53246;BME280;39569;51.090;-1.786;2022-12-29T08:15:51;99308.38;;;31.60;27.31
53246;BME280;39569;51.090;-1.786;2022-12-29T08:18:18;99320.03;;;31.54;27.51
53246;BME280;39569;51.090;-1.786;2022-12-29T08:20:45;99325.66;;;31.57;27.79
53246;BME280;39569;51.090;-1.786;2022-12-29T08:23:13;99319.44;;;31.48;27.82
53246;BME280;39569;51.090;-1.786;2022-12-29T08:25:40;99325.44;;;31.50;28.36
53246;BME280;39569;51.090;-1.786;2022-12-29T08:28:07;99332.09;;;31.61;27.91
53246;BME280;39569;51.090;-1.786;2022-12-29T08:30:34;99336.91;;;31.64;27.77
53246;BME280;39569;51.090;-1.786;2022-12-29T08:33:00;99346.81;;;31.65;28.12
53246;BME280;39569;51.090;-1.786;2022-12-29T08:35:27;99346.69;;;31.74;28.04
53246;BME280;39569;51.090;-1.786;2022-12-29T08:37:54;99342.16;;;31.94;27.84
53246;BME280;39569;51.090;-1.786;2022-12-29T08:40:22;99354.13;;;32.10;27.74
53246;BME280;39569;51.090;-1.786;2022-12-29T08:42:49;99361.16;;;32.07;27.32
53246;BME280;39569;51.090;-1.786;2022-12-29T08:45:16;99358.25;;;32.16;27.51
53246;BME280;39569;51.090;-1.786;2022-12-29T08:47:43;99387.03;;;32.27;27.47
53246;BME280;39569;51.090;-1.786;2022-12-29T08:50:10;99372.03;;;32.28;26.82
53246;BME280;39569;51.090;-1.786;2022-12-29T08:52:36;99377.91;;;32.26;27.54
53246;BME280;39569;51.090;-1.786;2022-12-29T08:55:04;99377.91;;;32.26;27.46
53246;BME280;39569;51.090;-1.786;2022-12-29T08:57:32;99388.97;;;32.26;26.85
53246;BME280;39569;51.090;-1.786;2022-12-29T08:59:59;99389.53;;;32.20;26.99
53246;BME280;39569;51.090;-1.786;2022-12-29T09:02:25;99393.03;;;32.17;27.10
53246;BME280;39569;51.090;-1.786;2022-12-29T09:04:52;99397.63;;;32.13;27.52
53246;BME280;39569;51.090;-1.786;2022-12-29T09:07:19;99403.25;;;32.16;26.89
53246;BME280;39569;51.090;-1.786;2022-12-29T09:09:45;99402.25;;;32.09;27.19
53246;BME280;39569;51.090;-1.786;2022-12-29T09:12:12;99408.47;;;32.06;26.97
53246;BME280;39569;51.090;-1.786;2022-12-29T09:14:40;99417.03;;;32.01;27.26
53246;BME280;39569;51.090;-1.786;2022-12-29T09:17:08;99423.00;;;31.91;27.36
53246;BME280;39569;51.090;-1.786;2022-12-29T09:19:52;99421.69;;;31.88;27.37
53246;BME280;39569;51.090;-1.786;2022-12-29T09:22:19;99427.22;;;31.88;27.66
53246;BME280;39569;51.090;-1.786;2022-12-29T09:24:46;99442.19;;;31.87;27.81
53246;BME280;39569;51.090;-1.786;2022-12-29T09:27:12;99433.69;;;31.80;27.35
53246;BME280;39569;51.090;-1.786;2022-12-29T09:29:41;99445.41;;;31.77;27.49
53246;BME280;39569;51.090;-1.786;2022-12-29T09:32:07;99449.47;;;31.67;28.19
53246;BME280;39569;51.090;-1.786;2022-12-29T09:34:34;99443.03;;;31.87;27.42
53246;BME280;39569;51.090;-1.786;2022-12-29T09:37:01;99441.28;;;32.71;26.32
53246;BME280;39569;51.090;-1.786;2022-12-29T09:39:28;99443.16;;;32.95;26.17
53246;BME280;39569;51.090;-1.786;2022-12-29T09:42:00;99462.22;;;32.32;26.28
53246;BME280;39569;51.090;-1.786;2022-12-29T09:44:33;99453.28;;;31.99;27.57
53246;BME280;39569;51.090;-1.786;2022-12-29T09:47:11;99450.50;;;31.75;27.35
53246;BME280;39569;51.090;-1.786;2022-12-29T09:49:43;99454.88;;;31.64;27.36
53246;BME280;39569;51.090;-1.786;2022-12-29T09:52:14;99444.03;;;31.47;27.69
53246;BME280;39569;51.090;-1.786;2022-12-29T09:54:50;99460.69;;;31.38;27.78
53246;BME280;39569;51.090;-1.786;2022-12-29T09:57:23;99469.44;;;31.40;27.67
53246;BME280;39569;51.090;-1.786;2022-12-29T09:59:55;99474.91;;;31.28;28.01
53246;BME280;39569;51.090;-1.786;2022-12-29T10:02:37;99480.22;;;31.33;27.73
53246;BME280;39569;51.090;-1.786;2022-12-29T10:05:15;99475.47;;;31.22;27.86
53246;BME280;39569;51.090;-1.786;2022-12-29T10:07:50;99472.34;;;31.23;28.54
53246;BME280;39569;51.090;-1.786;2022-12-29T10:10:31;99478.22;;;31.22;28.19
53246;BME280;39569;51.090;-1.786;2022-12-29T10:13:13;99480.75;;;31.15;28.32
53246;BME280;39569;51.090;-1.786;2022-12-29T10:15:52;99490.06;;;31.10;28.09
53246;BME280;39569;51.090;-1.786;2022-12-29T10:18:41;99500.22;;;31.30;28.34
53246;BME280;39569;51.090;-1.786;2022-12-29T10:21:17;99509.38;;;31.10;28.11
53246;BME280;39569;51.090;-1.786;2022-12-29T10:23:50;99532.09;;;31.07;28.23
53246;BME280;39569;51.090;-1.786;2022-12-29T10:26:19;99531.16;;;31.03;28.60
53246;BME280;39569;51.090;-1.786;2022-12-29T10:28:50;99528.16;;;30.96;28.46
53246;BME280;39569;51.090;-1.786;2022-12-29T10:31:21;99524.56;;;30.95;28.62
53246;BME280;39569;51.090;-1.786;2022-12-29T10:33:55;99520.22;;;30.94;28.47
53246;BME280;39569;51.090;-1.786;2022-12-29T10:36:35;99524.13;;;30.93;28.50
53246;BME280;39569;51.090;-1.786;2022-12-29T10:39:10;99532.00;;;30.83;28.88
53246;BME280;39569;51.090;-1.786;2022-12-29T10:41:46;99524.06;;;30.81;28.38
53246;BME280;39569;51.090;-1.786;2022-12-29T10:44:15;99536.69;;;30.82;28.32
53246;BME280;39569;51.090;-1.786;2022-12-29T10:46:44;99525.66;;;30.82;28.51
53246;BME280;39569;51.090;-1.786;2022-12-29T10:49:16;99527.94;;;30.80;28.75
53246;BME280;39569;51.090;-1.786;2022-12-29T10:51:46;99529.56;;;30.81;28.46
53246;BME280;39569;51.090;-1.786;2022-12-29T10:54:18;99530.69;;;30.80;28.27
53246;BME280;39569;51.090;-1.786;2022-12-29T10:56:50;99540.72;;;30.85;28.63
53246;BME280;39569;51.090;-1.786;2022-12-29T10:59:21;99540.09;;;30.88;28.16
53246;BME280;39569;51.090;-1.786;2022-12-29T11:01:55;99554.88;;;30.83;28.10
53246;BME280;39569;51.090;-1.786;2022-12-29T11:04:35;99543.88;;;30.75;28.76
53246;BME280;39569;51.090;-1.786;2022-12-29T11:07:07;99539.03;;;30.72;28.33
53246;BME280;39569;51.090;-1.786;2022-12-29T11:09:36;99545.09;;;30.65;28.48
53246;BME280;39569;51.090;-1.786;2022-12-29T11:12:23;99544.66;;;30.75;28.71
53246;BME280;39569;51.090;-1.786;2022-12-29T11:15:12;99531.09;;;30.70;28.29
53246;BME280;39569;51.090;-1.786;2022-12-29T11:17:44;99538.81;;;30.77;28.26
53246;BME280;39569;51.090;-1.786;2022-12-29T11:20:31;99540.19;;;30.71;28.15
53246;BME280;39569;51.090;-1.786;2022-12-29T11:23:01;99533.03;;;30.70;28.31
53246;BME280;39569;51.090;-1.786;2022-12-29T11:25:28;99548.03;;;30.60;28.71
53246;BME280;39569;51.090;-1.786;2022-12-29T11:27:57;99540.22;;;30.62;28.33
53246;BME280;39569;51.090;-1.786;2022-12-29T11:30:26;99547.72;;;30.62;28.32
53246;BME280;39569;51.090;-1.786;2022-12-29T11:32:54;99556.78;;;30.62;28.78
53246;BME280;39569;51.090;-1.786;2022-12-29T11:35:35;99550.47;;;30.62;28.76
53246;BME280;39569;51.090;-1.786;2022-12-29T11:38:02;99547.59;;;30.58;28.48
53246;BME280;39569;51.090;-1.786;2022-12-29T11:40:31;99542.97;;;30.62;28.07
53246;BME280;39569;51.090;-1.786;2022-12-29T11:43:01;99553.09;;;30.58;28.38
53246;BME280;39569;51.090;-1.786;2022-12-29T11:45:30;99552.31;;;30.49;28.45
53246;BME280;39569;51.090;-1.786;2022-12-29T11:48:01;99551.84;;;30.47;28.91
53246;BME280;39569;51.090;-1.786;2022-12-29T11:50:37;99552.31;;;30.49;28.50
53246;BME280;39569;51.090;-1.786;2022-12-29T11:53:08;99555.06;;;30.49;28.28
53246;BME280;39569;51.090;-1.786;2022-12-29T11:55:51;99554.47;;;30.44;28.31
53246;BME280;39569;51.090;-1.786;2022-12-29T11:58:18;99555.28;;;30.44;28.72
53246;BME280;39569;51.090;-1.786;2022-12-29T12:00:45;99560.56;;;30.58;28.46
53246;BME280;39569;51.090;-1.786;2022-12-29T12:03:15;99562.72;;;30.44;28.53
53246;BME280;39569;51.090;-1.786;2022-12-29T12:05:47;99563.41;;;30.41;28.20
53246;BME280;39569;51.090;-1.786;2022-12-29T12:08:20;99566.97;;;30.41;28.65
53246;BME280;39569;51.090;-1.786;2022-12-29T12:10:58;99566.03;;;30.37;28.40
53246;BME280;39569;51.090;-1.786;2022-12-29T12:13:34;99577.53;;;30.39;28.43
53246;BME280;39569;51.090;-1.786;2022-12-29T12:16:07;99568.09;;;30.40;28.62
53246;BME280;39569;51.090;-1.786;2022-12-29T12:18:41;99579.22;;;31.02;27.78
53246;BME280;39569;51.090;-1.786;2022-12-29T12:21:15;99569.88;;;30.45;28.46
53246;BME280;39569;51.090;-1.786;2022-12-29T12:23:56;99576.03;;;30.42;28.60
53246;BME280;39569;51.090;-1.786;2022-12-29T12:26:30;99572.53;;;30.33;28.71
53246;BME280;39569;51.090;-1.786;2022-12-29T12:29:02;99576.44;;;30.32;28.28
53246;BME280;39569;51.090;-1.786;2022-12-29T12:31:41;99576.13;;;30.25;28.22
53246;BME280;39569;51.090;-1.786;2022-12-29T12:34:14;99583.78;;;30.19;28.57
53246;BME280;39569;51.090;-1.786;2022-12-29T12:40:02;99572.75;;;30.19;28.95
53246;BME280;39569;51.090;-1.786;2022-12-29T12:42:44;99577.31;;;30.07;28.57
53246;BME280;39569;51.090;-1.786;2022-12-29T12:45:34;99573.09;;;30.09;28.55
53246;BME280;39569;51.090;-1.786;2022-12-29T12:48:14;99579.28;;;30.06;28.68
53246;BME280;39569;51.090;-1.786;2022-12-29T12:50:52;99562.63;;;30.02;28.64
53246;BME280;39569;51.090;-1.786;2022-12-29T12:53:36;99565.69;;;30.01;28.85
53246;BME280;39569;51.090;-1.786;2022-12-29T12:59:07;99571.16;;;30.10;28.28
53246;BME280;39569;51.090;-1.786;2022-12-29T13:01:48;99565.19;;;30.08;28.54
53246;BME280;39569;51.090;-1.786;2022-12-29T13:04:45;99570.22;;;30.06;28.67
53246;BME280;39569;51.090;-1.786;2022-12-29T13:07:24;99577.19;;;30.03;28.57
53246;BME280;39569;51.090;-1.786;2022-12-29T13:10:16;99582.69;;;30.03;28.79
53246;BME280;39569;51.090;-1.786;2022-12-29T13:12:52;99586.75;;;30.06;28.45
53246;BME280;39569;51.090;-1.786;2022-12-29T13:15:34;99584.03;;;29.97;28.73
53246;BME280;39569;51.090;-1.786;2022-12-29T13:18:07;99589.53;;;29.97;28.68
53246;BME280;39569;51.090;-1.786;2022-12-29T13:20:45;99581.75;;;29.99;28.57
53246;BME280;39569;51.090;-1.786;2022-12-29T13:23:20;99582.06;;;29.97;28.65
53246;BME280;39569;51.090;-1.786;2022-12-29T13:25:55;99584.19;;;30.00;28.41